createdAt,value
2018-11-25T00:00:49.201Z,21.53
2018-11-25T00:05:05.441Z,19.10
2018-11-25T00:09:20.061Z,17.12
2018-11-25T00:13:29.031Z,17.13
2018-11-25T00:17:43.545Z,19.27
2018-11-25T00:21:54.257Z,18.20
2018-11-25T00:26:01.978Z,17.70
2018-11-25T00:30:13.626Z,17.05
2018-11-25T00:34:24.470Z,19.27
2018-11-25T00:38:39.742Z,20.10
2018-11-25T00:42:52.351Z,18.07
2018-11-25T00:47:03.202Z,17.60
2018-11-25T00:51:33.189Z,19.50
2018-11-25T00:55:43.270Z,19.77
2018-11-25T00:59:55.084Z,20.13
2018-11-25T01:04:02.203Z,17.97
2018-11-25T01:08:14.206Z,16.13
2018-11-25T01:12:30.778Z,16.45
2018-11-25T01:16:40.350Z,18.47
2018-11-25T01:21:01.242Z,18.17
2018-11-25T01:25:11.452Z,15.57
2018-11-25T01:29:23.514Z,16.55
2018-11-25T01:33:38.430Z,16.80
2018-11-25T01:37:46.097Z,17.93
2018-11-25T01:42:00.853Z,19.90
2018-11-25T01:46:13.289Z,19.10
2018-11-25T01:50:27.113Z,16.33
2018-11-25T01:54:40.507Z,15.57
2018-11-25T01:59:11.406Z,15.30
2018-11-25T02:03:18.326Z,14.70
2018-11-25T02:07:26.098Z,14.20
2018-11-25T02:11:39.988Z,16.50
2018-11-25T02:15:58.464Z,15.93
2018-11-25T02:20:11.894Z,16.70
2018-11-25T02:24:26.924Z,17.73
2018-11-25T02:28:43.931Z,17.90
2018-11-25T02:32:54.372Z,17.43
2018-11-25T02:37:06.594Z,18.17
2018-11-25T02:41:30.830Z,17.82
2018-11-25T02:45:44.897Z,18.43
2018-11-25T02:49:56.986Z,18.80
2018-11-25T02:54:08.614Z,17.50
2018-11-25T02:58:16.745Z,19.15
2018-11-25T03:02:27.997Z,17.57
2018-11-25T03:06:41.100Z,18.13
2018-11-25T03:10:52.973Z,18.27
2018-11-25T03:15:07.611Z,17.70
2018-11-25T03:19:18.888Z,19.40
2018-11-25T03:23:31.103Z,18.50
2018-11-25T03:27:48.184Z,18.80
2018-11-25T03:31:55.324Z,20.20
2018-11-25T03:36:09.509Z,19.97
2018-11-25T03:40:20.107Z,18.30
2018-11-25T03:44:33.942Z,15.93
2018-11-25T03:48:49.479Z,19.03
2018-11-25T03:52:56.764Z,19.77
2018-11-25T03:57:09.866Z,20.10
2018-11-25T04:01:21.540Z,18.77
2018-11-25T04:05:38.279Z,20.03
2018-11-25T04:09:48.988Z,18.90
2018-11-25T04:14:04.340Z,22.90
2018-11-25T04:18:14.074Z,23.13
2018-11-25T04:22:27.372Z,20.70
2018-11-25T04:26:40.991Z,20.50
2018-11-25T04:30:56.721Z,23.70
2018-11-25T04:35:11.830Z,20.93
2018-11-25T04:39:18.631Z,22.00
2018-11-25T04:43:32.800Z,20.27
2018-11-25T04:47:50.466Z,26.27
2018-11-25T04:51:58.395Z,28.55
2018-11-25T04:56:08.817Z,33.10
2018-11-25T05:00:19.599Z,28.50
2018-11-25T05:09:03.084Z,25.87
2018-11-25T05:13:12.379Z,21.70
2018-11-25T05:17:21.939Z,28.63
2018-11-25T05:21:32.185Z,25.30
2018-11-25T05:25:43.522Z,26.90
2018-11-25T05:29:59.308Z,31.90
2018-11-25T05:34:08.058Z,32.60
2018-11-25T05:38:25.559Z,31.80
2018-11-25T05:42:40.364Z,33.40
2018-11-25T05:46:55.209Z,34.10
2018-11-25T05:51:03.761Z,32.43
2018-11-25T05:55:13.855Z,31.27
2018-11-25T05:59:25.091Z,28.32
2018-11-25T06:03:37.802Z,31.47
2018-11-25T06:07:55.621Z,27.00
2018-11-25T06:12:06.798Z,29.20
2018-11-25T06:16:16.873Z,30.37
2018-11-25T06:20:30.865Z,28.23
2018-11-25T06:24:44.157Z,32.90
2018-11-25T06:29:01.013Z,36.53
2018-11-25T06:33:10.741Z,36.83
2018-11-25T06:37:24.380Z,34.38
2018-11-25T06:41:36.621Z,32.73
2018-11-25T06:45:49.008Z,27.03
2018-11-25T06:50:00.019Z,32.80
2018-11-25T06:54:09.029Z,33.57
2018-11-25T06:58:25.246Z,33.23
2018-11-25T07:02:35.942Z,31.70
2018-11-25T07:06:44.825Z,34.27
2018-11-25T07:10:58.645Z,32.33
2018-11-25T07:15:11.221Z,28.30
2018-11-25T07:19:27.148Z,24.37
2018-11-25T07:23:39.299Z,24.97
2018-11-25T07:27:47.260Z,24.20
2018-11-25T07:31:59.837Z,23.87
2018-11-25T07:36:07.552Z,22.57
2018-11-25T07:40:18.627Z,22.77
2018-11-25T07:44:30.797Z,23.37
2018-11-25T07:48:50.594Z,23.63
2018-11-25T07:53:02.656Z,23.87
2018-11-25T07:57:12.657Z,23.20
2018-11-25T08:01:20.035Z,22.67
2018-11-25T08:05:35.345Z,22.93
2018-11-25T08:09:49.918Z,21.30
2018-11-25T08:14:00.519Z,21.93
2018-11-25T08:18:21.479Z,20.13
2018-11-25T08:22:37.193Z,18.70
2018-11-25T08:26:49.255Z,19.27
2018-11-25T08:31:02.309Z,19.07
2018-11-25T08:35:14.929Z,19.37
2018-11-25T08:39:28.477Z,17.97
2018-11-25T08:43:41.203Z,18.70
2018-11-25T08:47:49.655Z,19.20
2018-11-25T08:51:58.986Z,17.10
2018-11-25T08:56:10.200Z,17.70
2018-11-25T09:00:28.516Z,19.87
2018-11-25T09:04:41.657Z,18.87
2018-11-25T09:08:55.606Z,21.47
2018-11-25T09:13:05.240Z,21.17
2018-11-25T09:17:17.379Z,21.87
2018-11-25T09:21:31.721Z,19.43
2018-11-25T09:25:40.813Z,20.53
2018-11-25T09:29:50.432Z,21.60
2018-11-25T09:34:03.227Z,20.87
2018-11-25T09:38:13.547Z,20.77
2018-11-25T09:42:26.792Z,22.50
2018-11-25T09:46:42.735Z,19.90
2018-11-25T09:50:51.338Z,20.53
2018-11-25T09:54:58.992Z,20.83
2018-11-25T09:59:14.485Z,21.53
2018-11-25T13:10:21.882Z,30.07
2018-11-25T13:14:39.702Z,29.43
2018-11-25T13:18:55.100Z,28.43
2018-11-25T13:23:03.531Z,29.03
2018-11-25T13:27:13.676Z,30.00
2018-11-25T13:31:24.754Z,29.40
2018-11-25T13:35:41.106Z,27.43
2018-11-25T13:39:51.154Z,26.50
2018-11-25T13:44:03.474Z,28.97
2018-11-25T13:48:16.518Z,27.37
2018-11-25T13:52:27.179Z,26.60
2018-11-25T13:56:44.250Z,28.67
2018-11-25T14:01:16.727Z,25.87
2018-11-25T14:05:36.390Z,27.58
2018-11-25T14:09:55.579Z,29.87
2018-11-25T14:14:07.001Z,30.00
2018-11-25T14:18:23.728Z,29.42
2018-11-25T14:22:37.604Z,30.73
2018-11-25T14:26:52.770Z,32.67
2018-11-25T14:31:24.373Z,33.23
2018-11-25T14:35:34.623Z,32.98
2018-11-25T14:39:44.688Z,33.90
2018-11-25T14:43:56.395Z,37.93
2018-11-25T14:48:08.790Z,35.23
2018-11-25T15:02:48.035Z,38.00
2018-11-25T15:07:05.032Z,36.73
2018-11-25T15:11:18.084Z,35.43
2018-11-25T15:15:40.860Z,38.63
2018-11-25T15:20:26.998Z,34.97
2018-11-25T15:25:16.009Z,38.60
2018-11-25T15:29:32.517Z,40.27
2018-11-25T15:33:46.218Z,40.57
2018-11-25T15:38:25.408Z,43.10
2018-11-25T15:42:38.131Z,37.47
2018-11-25T15:46:53.474Z,44.13
2018-11-25T15:51:10.329Z,42.60
2018-11-25T15:55:23.619Z,42.47
2018-11-25T15:59:38.655Z,36.13
2018-11-25T16:04:11.167Z,34.83
2018-11-25T16:08:27.972Z,36.97
2018-11-25T16:12:45.124Z,35.93
2018-11-25T16:16:56.042Z,37.67
2018-11-25T16:21:07.622Z,39.57
2018-11-25T16:25:29.197Z,38.43
2018-11-25T16:29:44.278Z,37.53
2018-11-25T16:33:51.763Z,38.13
2018-11-25T16:38:07.164Z,39.80
2018-11-25T16:42:18.813Z,42.60
2018-11-25T16:46:29.325Z,36.95
2018-11-25T16:50:40.317Z,38.30
2018-11-25T16:54:51.083Z,38.03
2018-11-25T16:59:01.891Z,39.70
2018-11-25T17:03:13.073Z,43.17
2018-11-25T17:07:28.351Z,43.92
2018-11-25T17:11:39.539Z,49.17
2018-11-25T17:15:50.560Z,44.50
2018-11-25T17:20:04.501Z,41.77
2018-11-25T17:24:18.549Z,38.40
2018-11-25T17:28:27.480Z,41.27
2018-11-25T17:32:43.794Z,40.53
2018-11-25T17:47:00.606Z,39.03
2018-11-25T17:51:12.930Z,37.13
2018-11-25T17:55:24.864Z,37.80
2018-11-25T17:59:35.673Z,38.55
2018-11-25T18:03:47.398Z,37.27
2018-11-25T18:08:00.156Z,33.83
2018-11-25T18:12:17.027Z,35.68
2018-11-25T18:16:29.898Z,33.40
2018-11-25T18:20:53.904Z,32.83
2018-11-25T18:25:03.944Z,34.33
2018-11-25T18:29:13.757Z,35.90
2018-11-25T18:33:26.568Z,34.00
2018-11-25T18:37:42.114Z,36.10
2018-11-25T18:41:57.665Z,32.53
2018-11-25T18:46:05.139Z,33.70
2018-11-25T18:50:18.843Z,33.30
2018-11-25T18:54:29.051Z,33.45
2018-11-25T18:58:37.513Z,31.47
2018-11-25T19:02:46.853Z,31.37
2018-11-25T19:06:57.753Z,29.47
2018-11-25T19:11:05.546Z,31.00
2018-11-25T19:15:15.414Z,31.95
2018-11-25T19:19:29.990Z,30.10
2018-11-25T19:23:42.030Z,30.83
2018-11-25T19:27:54.451Z,31.27
2018-11-25T19:32:05.664Z,28.53
2018-11-25T19:36:35.667Z,29.67
2018-11-25T19:40:47.208Z,29.57
2018-11-25T19:44:57.106Z,29.27
2018-11-25T20:03:39.105Z,29.93
2018-11-25T20:07:49.427Z,28.23
2018-11-25T20:11:58.395Z,29.10
2018-11-25T20:16:24.918Z,29.80
2018-11-25T20:20:41.417Z,30.03
2018-11-25T20:24:45.986Z,30.00
2018-11-25T20:28:57.634Z,27.87
2018-11-25T20:33:27.138Z,28.90
2018-11-25T20:37:57.687Z,29.50
2018-11-25T20:42:08.570Z,31.47
2018-11-25T20:46:35.703Z,30.95
2018-11-25T20:50:54.126Z,31.03
2018-11-25T20:55:07.341Z,28.60
2018-11-25T20:59:20.928Z,30.80
2018-11-25T21:03:34.100Z,29.40
2018-11-25T21:07:46.723Z,30.07
2018-11-25T21:12:01.154Z,28.67
2018-11-25T21:16:16.757Z,28.90
2018-11-25T21:20:35.842Z,30.27
2018-11-25T21:24:51.444Z,30.53
2018-11-25T21:28:59.963Z,29.10
2018-11-25T21:33:10.035Z,30.00
2018-11-25T21:37:17.377Z,30.37
2018-11-25T21:41:30.251Z,30.88
2018-11-25T21:45:43.130Z,33.33
2018-11-25T21:49:54.284Z,32.20
2018-11-25T21:54:25.249Z,32.20
2018-11-25T21:58:58.957Z,31.33
2018-11-25T22:03:15.492Z,32.60
2018-11-25T22:07:30.845Z,31.87
2018-11-25T22:11:38.369Z,32.60
2018-11-25T22:25:50.116Z,33.03
2018-11-25T22:30:23.677Z,35.17
2018-11-25T22:34:35.705Z,33.40
2018-11-25T22:38:45.963Z,32.40
2018-11-25T22:42:55.660Z,33.17
2018-11-25T22:47:07.492Z,33.57
2018-11-25T22:51:19.271Z,33.60
2018-11-25T22:55:29.038Z,35.30
2018-11-25T22:59:39.845Z,34.00
2018-11-25T23:04:04.229Z,35.60
2018-11-25T23:08:15.409Z,33.43
2018-11-25T23:12:30.780Z,35.33
2018-11-25T23:16:43.451Z,34.90
2018-11-25T23:20:53.782Z,36.63
2018-11-25T23:25:04.936Z,34.50
2018-11-25T23:29:14.911Z,34.83
2018-11-25T23:33:25.711Z,33.23
2018-11-25T23:37:52.847Z,31.13
2018-11-25T23:42:10.143Z,32.87
2018-11-25T23:46:25.723Z,31.33
2018-11-25T23:50:33.103Z,31.17
2018-11-25T23:54:41.716Z,31.55
2018-11-25T23:58:59.683Z,31.63
